Time;durP1;ratioP1;P1;durP2;ratioP2;P2;SDS_P1;SDS_P2;PMS_P1;PMS_P2;Temp;Humidity;BMP_temperature;BMP_pressure;BME280_temperature;BME280_humidity;BME280_pressure;Samples;Min_cycle;Max_cycle;Signal;HPM_P1;HPM_P2
2020/12/19 00:00:28;;;;;;;94.28;51.63;;;;;;;3.46;73.21;96236.16;5051363;28;20215;-64
2020/12/19 00:02:55;;;;;;;89.85;50.03;;;;;;;3.48;73.27;96234.19;5054911;28;20268;-67
2020/12/19 00:05:21;;;;;;;93.85;50.70;;;;;;;3.35;72.95;96234.00;5052290;28;20196;-66
2020/12/19 00:07:48;;;;;;;102.13;51.92;;;;;;;3.18;73.28;96222.19;5047512;28;20259;-63
2020/12/19 00:10:15;;;;;;;92.93;50.65;;;;;;;3.21;73.33;96232.22;5047929;28;20184;-67
2020/12/19 00:12:45;;;;;;;92.65;49.72;;;;;;;3.28;73.28;96235.69;5048060;28;20671;-66
2020/12/19 00:15:16;;;;;;;90.85;50.35;;;;;;;3.34;73.13;96233.19;5047426;28;20227;-65
2020/12/19 00:17:43;;;;;;;108.80;54.50;;;;;;;3.33;72.95;96235.97;5047997;28;20271;-67
2020/12/19 00:20:10;;;;;;;108.93;52.95;;;;;;;3.10;73.69;96234.25;5047023;28;20628;-65
2020/12/19 00:22:36;;;;;;;109.13;53.75;;;;;;;2.99;74.17;96233.88;5045972;28;20189;-63
2020/12/19 00:25:04;;;;;;;103.38;54.10;;;;;;;3.14;74.24;96234.69;5048253;28;20250;-67
2020/12/19 00:27:31;;;;;;;104.97;54.38;;;;;;;3.30;74.16;96242.31;5048164;28;20303;-64
2020/12/19 00:29:57;;;;;;;103.30;52.00;;;;;;;3.39;73.34;96236.06;5045270;28;20200;-64
2020/12/19 00:32:23;;;;;;;103.20;52.72;;;;;;;3.32;73.61;96235.16;5047927;28;20587;-67
2020/12/19 00:34:56;;;;;;;103.68;52.70;;;;;;;3.36;73.70;96235.63;5047225;28;20307;-67
2020/12/19 00:37:24;;;;;;;96.22;50.95;;;;;;;3.44;74.00;96238.13;5047698;28;20176;-68
2020/12/19 00:39:51;;;;;;;101.70;52.22;;;;;;;3.31;73.53;96237.91;5047566;28;20224;-63
2020/12/19 00:42:18;;;;;;;97.68;49.53;;;;;;;3.48;73.34;96240.19;5045323;28;20196;-67
2020/12/19 00:44:45;;;;;;;105.78;50.25;;;;;;;3.38;73.83;96239.63;5047291;28;20188;-64
2020/12/19 00:47:11;;;;;;;125.82;54.22;;;;;;;3.29;73.35;96242.47;5047767;28;20287;-67
2020/12/19 00:49:37;;;;;;;130.15;51.55;;;;;;;3.03;73.98;96245.47;5044653;28;20199;-65
2020/12/19 00:52:04;;;;;;;114.78;50.60;;;;;;;3.08;73.81;96253.53;5047678;28;20195;-63
2020/12/19 00:54:31;;;;;;;113.57;50.80;;;;;;;2.95;74.14;96243.78;5047489;28;20193;-68
2020/12/19 00:56:57;;;;;;;95.13;49.90;;;;;;;3.07;73.99;96250.13;5044830;28;20181;-64
2020/12/19 00:59:23;;;;;;;122.07;52.80;;;;;;;3.03;74.49;96243.69;5046950;28;20720;-65
2020/12/19 01:01:50;;;;;;;106.85;50.55;;;;;;;2.92;75.02;96238.94;5047836;28;20572;-65
2020/12/19 01:04:16;;;;;;;105.53;51.80;;;;;;;3.18;74.73;96245.50;5046898;28;20630;-62
2020/12/19 01:06:43;;;;;;;106.75;52.28;;;;;;;3.24;74.62;96237.84;5047567;28;20196;-64
2020/12/19 01:09:09;;;;;;;101.32;50.72;;;;;;;3.27;74.19;96226.31;5046910;28;20315;-65
2020/12/19 01:11:37;;;;;;;107.25;51.65;;;;;;;3.47;74.02;96227.38;5047183;28;20313;-68
2020/12/19 01:14:05;;;;;;;103.63;51.25;;;;;;;3.47;73.84;96222.19;5046742;28;20198;-64
2020/12/19 01:16:32;;;;;;;139.88;56.45;;;;;;;3.51;73.81;96223.44;5047331;28;20193;-67
2020/12/19 01:19:04;;;;;;;104.95;52.15;;;;;;;3.47;73.94;96232.56;5043966;28;20203;-66
2020/12/19 01:21:32;;;;;;;99.75;51.05;;;;;;;3.54;73.83;96233.47;5047116;28;20255;-63
2020/12/19 01:23:59;;;;;;;147.27;53.95;;;;;;;3.43;73.85;96226.16;5046767;28;20643;-65
2020/12/19 01:26:26;;;;;;;122.53;53.22;;;;;;;3.33;73.47;96215.25;5048623;28;20191;-65
2020/12/19 01:28:53;;;;;;;133.75;56.05;;;;;;;3.12;74.22;96225.50;5050732;28;20181;-66
2020/12/19 01:31:21;;;;;;;107.82;53.55;;;;;;;3.15;75.09;96214.78;5054540;28;20618;-67
2020/12/19 01:33:49;;;;;;;112.65;54.67;;;;;;;3.12;74.88;96213.34;5050143;28;20232;-64
2020/12/19 01:36:19;;;;;;;117.63;55.58;;;;;;;3.27;75.13;96221.13;5050881;28;20192;-63
2020/12/19 01:38:46;;;;;;;113.47;57.08;;;;;;;3.39;74.61;96217.13;5050206;28;20318;-64
2020/12/19 01:41:13;;;;;;;135.68;57.15;;;;;;;3.33;75.00;96220.41;5050478;28;20683;-64
2020/12/19 01:43:42;;;;;;;138.82;59.88;;;;;;;3.28;74.88;96207.19;5047269;28;20204;-64
2020/12/19 01:46:09;;;;;;;125.38;58.05;;;;;;;3.29;74.99;96213.97;5050572;28;20204;-69
2020/12/19 01:48:37;;;;;;;117.85;57.30;;;;;;;3.28;74.94;96213.19;5050001;28;20510;-65
2020/12/19 01:51:03;;;;;;;153.57;57.83;;;;;;;3.27;75.07;96216.75;5050564;28;20284;-70
2020/12/19 01:53:30;;;;;;;222.93;62.55;;;;;;;3.33;74.98;96215.25;5050099;28;20564;-65
2020/12/19 01:55:58;;;;;;;120.47;54.90;;;;;;;3.26;74.71;96216.94;5050546;28;20201;-64
2020/12/19 01:58:25;;;;;;;154.15;57.47;;;;;;;3.17;74.90;96216.22;5050395;28;20193;-67
2020/12/19 02:00:53;;;;;;;141.88;55.33;;;;;;;3.09;75.36;96211.94;5050162;28;20658;-65
2020/12/19 02:03:32;;;;;;;191.98;61.85;;;;;;;3.22;75.32;96218.25;5048690;28;20374;-63
2020/12/19 02:06:00;;;;;;;173.63;61.58;;;;;;;3.24;75.21;96221.47;5050115;28;20642;-64
2020/12/19 02:08:26;;;;;;;126.50;56.20;;;;;;;3.33;74.78;96223.00;5050108;28;20614;-66
2020/12/19 02:10:53;;;;;;;142.73;58.42;;;;;;;3.34;74.34;96222.03;5049999;28;20734;-63
2020/12/19 02:13:19;;;;;;;118.75;55.22;;;;;;;3.33;74.88;96220.41;5050414;28;20608;-66
2020/12/19 02:15:46;;;;;;;134.40;57.95;;;;;;;3.28;74.98;96222.75;5049563;28;20184;-66
2020/12/19 02:18:12;;;;;;;132.77;56.58;;;;;;;3.31;74.50;96214.59;5049938;28;20585;-64
2020/12/19 02:20:39;;;;;;;143.27;57.60;;;;;;;3.31;74.80;96217.19;5049327;28;20250;-62
2020/12/19 02:23:07;;;;;;;148.38;57.35;;;;;;;3.24;75.21;96218.91;5053799;28;20196;-69
2020/12/19 02:25:37;;;;;;;175.10;62.53;;;;;;;3.18;75.16;96211.81;5049696;28;20187;-63
2020/12/19 02:28:07;;;;;;;192.10;62.40;;;;;;;3.19;74.97;96214.25;5047518;28;20212;-64
2020/12/19 02:30:34;;;;;;;124.68;55.72;;;;;;;3.28;75.31;96217.56;5049676;28;20192;-63
2020/12/19 02:33:00;;;;;;;157.60;60.75;;;;;;;3.31;74.98;96217.19;5049397;28;20310;-65
2020/12/19 02:35:27;;;;;;;148.80;56.03;;;;;;;3.31;75.05;96207.66;5049595;28;20279;-68
2020/12/19 02:37:53;;;;;;;133.75;56.03;;;;;;;3.21;75.33;96206.31;5048663;28;20578;-67
2020/12/19 02:40:20;;;;;;;112.78;52.08;;;;;;;3.22;74.92;96210.50;5048581;28;20312;-63
2020/12/19 02:42:47;;;;;;;117.18;52.88;;;;;;;3.26;75.00;96204.78;5049562;28;20215;-66
2020/12/19 02:45:13;;;;;;;155.35;53.10;;;;;;;3.22;75.14;96207.91;5049026;28;20282;-65
2020/12/19 02:47:40;;;;;;;124.32;54.10;;;;;;;3.14;74.99;96213.97;5049707;28;20283;-62
2020/12/19 02:50:06;;;;;;;110.75;52.03;;;;;;;3.19;75.49;96208.28;5048836;28;20681;-65
2020/12/19 02:52:33;;;;;;;129.75;53.45;;;;;;;3.07;75.53;96206.13;5049130;28;20228;-65
2020/12/19 02:54:59;;;;;;;122.72;52.67;;;;;;;3.13;75.39;96203.78;5048709;28;20576;-65
2020/12/19 02:57:25;;;;;;;130.23;53.45;;;;;;;3.22;74.80;96206.13;5048921;28;20199;-63
2020/12/19 02:59:52;;;;;;;140.10;55.20;;;;;;;3.33;74.53;96212.66;5048929;28;20311;-67
2020/12/19 03:02:19;;;;;;;117.63;51.45;;;;;;;3.16;75.03;96199.06;5049024;28;20195;-65
2020/12/19 03:04:46;;;;;;;117.40;52.80;;;;;;;3.23;75.41;96209.53;5058558;28;20185;-64
2020/12/19 03:07:13;;;;;;;150.13;55.17;;;;;;;3.17;75.24;96198.09;5050506;28;20255;-67
2020/12/19 03:09:40;;;;;;;110.85;51.58;;;;;;;3.29;74.37;96203.63;5048345;28;20184;-65
2020/12/19 03:12:06;;;;;;;129.45;51.70;;;;;;;3.27;74.42;96208.97;5048836;28;20185;-61
2020/12/19 03:14:33;;;;;;;146.30;54.75;;;;;;;3.22;74.58;96210.50;5048401;28;20196;-63
2020/12/19 03:16:59;;;;;;;107.78;50.13;;;;;;;3.15;74.54;96217.38;5049147;28;20189;-67
2020/12/19 03:19:26;;;;;;;104.80;50.15;;;;;;;3.13;75.08;96208.97;5048813;28;20224;-67
2020/12/19 03:21:52;;;;;;;98.60;46.85;;;;;;;3.14;74.60;96213.19;5048946;28;20911;-63
2020/12/19 03:24:19;;;;;;;102.53;49.38;;;;;;;3.17;74.24;96220.59;5048207;28;20457;-66
2020/12/19 03:26:45;;;;;;;96.20;47.28;;;;;;;3.19;74.67;96210.88;5048468;28;20582;-65
2020/12/19 03:29:11;;;;;;;97.20;47.78;;;;;;;3.12;74.63;96204.78;5048277;28;20204;-64
2020/12/19 03:31:38;;;;;;;101.20;46.95;;;;;;;3.18;74.51;96211.81;5049227;28;20215;-70
2020/12/19 03:34:05;;;;;;;107.03;47.85;;;;;;;3.12;74.76;96197.03;5048213;28;20216;-67
2020/12/19 03:36:42;;;;;;;91.35;44.38;;;;;;;3.28;74.28;96209.78;5048422;28;20203;-66
2020/12/19 03:39:09;;;;;;;95.07;43.72;;;;;;;3.23;74.29;96204.34;5047896;28;20210;-64
2020/12/19 03:41:35;;;;;;;89.57;43.03;;;;;;;3.11;74.35;96216.91;5048173;28;20685;-64
2020/12/19 03:44:02;;;;;;;81.00;40.60;;;;;;;3.19;74.51;96208.28;5048037;28;20207;-63
2020/12/19 03:46:28;;;;;;;98.03;42.67;;;;;;;3.01;74.46;96201.63;5048754;28;20218;-62
2020/12/19 03:48:55;;;;;;;88.65;42.38;;;;;;;3.13;74.52;96208.97;5047808;28;20216;-68
2020/12/19 03:51:21;;;;;;;80.90;38.95;;;;;;;3.14;74.35;96211.38;5048311;28;20577;-64
2020/12/19 03:53:47;;;;;;;75.32;38.47;;;;;;;3.18;74.12;96212.63;5047506;28;20180;-67
2020/12/19 03:56:14;;;;;;;75.35;37.10;;;;;;;3.19;74.04;96218.63;5047614;28;20207;-65
2020/12/19 03:58:40;;;;;;;70.95;36.20;;;;;;;3.16;74.20;96219.78;5044827;28;20181;-68
2020/12/19 04:01:07;;;;;;;75.10;36.88;;;;;;;3.21;74.24;96216.66;5048341;28;20311;-62
2020/12/19 04:03:33;;;;;;;75.88;35.67;;;;;;;3.19;74.14;96218.63;5047759;28;20303;-63
2020/12/19 04:06:00;;;;;;;73.13;34.72;;;;;;;3.05;74.02;96221.03;5045381;28;20250;-66
2020/12/19 04:08:26;;;;;;;60.42;30.95;;;;;;;3.16;74.07;96214.59;5047597;28;20192;-66
2020/12/19 04:10:53;;;;;;;63.92;32.75;;;;;;;3.14;74.16;96220.94;5063734;28;20699;-64
2020/12/19 04:13:19;;;;;;;61.05;29.75;;;;;;;3.21;73.99;96227.03;5048374;28;20192;-65
2020/12/19 04:15:46;;;;;;;53.80;27.48;;;;;;;2.87;73.80;96220.53;5049310;28;20180;-67
2020/12/19 04:18:12;;;;;;;56.15;28.08;;;;;;;2.81;74.89;96231.59;5050956;28;20195;-68
2020/12/19 04:20:39;;;;;;;60.38;28.35;;;;;;;3.07;74.37;96226.84;5047935;28;20230;-67
2020/12/19 04:23:05;;;;;;;54.13;27.63;;;;;;;3.24;73.46;96231.84;5048261;28;20303;-66
2020/12/19 04:25:31;;;;;;;52.92;27.17;;;;;;;3.24;73.81;96226.66;5047070;28;20203;-62
2020/12/19 04:27:58;;;;;;;49.00;26.42;;;;;;;3.32;72.86;96227.38;5048028;28;20303;-69
2020/12/19 04:30:25;;;;;;;50.38;26.17;;;;;;;3.45;72.37;96230.16;5047413;28;20616;-61
2020/12/19 04:32:51;;;;;;;51.05;25.45;;;;;;;3.33;72.80;96225.59;5047911;28;20327;-66
2020/12/19 04:35:18;;;;;;;53.40;25.98;;;;;;;3.48;72.69;96223.81;5047298;28;20196;-64
2020/12/19 04:37:44;;;;;;;53.63;25.55;;;;;;;3.45;72.00;96226.78;5050660;28;20661;-65
2020/12/19 04:40:11;;;;;;;52.03;26.10;;;;;;;3.37;72.44;96226.84;5049969;28;20262;-62
2020/12/19 04:42:41;;;;;;;53.42;25.27;;;;;;;3.34;72.83;96225.41;5047763;28;20576;-64
2020/12/19 04:45:08;;;;;;;47.10;24.27;;;;;;;3.31;73.07;96227.56;5047511;28;20279;-67
2020/12/19 04:47:34;;;;;;;47.53;24.33;;;;;;;3.32;73.01;96229.19;5047902;28;20641;-66
2020/12/19 04:50:02;;;;;;;47.65;24.85;;;;;;;3.20;72.96;96226.22;5046726;28;20200;-72
2020/12/19 04:52:29;;;;;;;45.25;24.17;;;;;;;3.27;73.10;96216.75;5048375;28;20300;-67
2020/12/19 04:54:56;;;;;;;49.30;24.55;;;;;;;3.35;72.88;96226.22;5047095;28;20189;-70
2020/12/19 04:57:22;;;;;;;51.78;26.25;;;;;;;3.33;72.83;96228.19;5044899;28;20185;-68
2020/12/19 04:59:50;;;;;;;51.28;26.67;;;;;;;3.25;73.08;96236.06;5047166;28;20197;-66
2020/12/19 05:02:17;;;;;;;51.28;26.38;;;;;;;3.19;73.27;96229.00;5050649;28;20850;-68
2020/12/19 05:04:43;;;;;;;52.08;26.30;;;;;;;3.13;73.13;96216.75;5048458;28;20278;-68
2020/12/19 05:07:12;;;;;;;54.63;26.95;;;;;;;3.15;73.54;96232.91;5051500;28;20192;-65
2020/12/19 05:09:43;;;;;;;53.60;27.48;;;;;;;3.12;73.55;96243.63;5051104;28;20250;-66
2020/12/19 05:12:11;;;;;;;54.50;27.48;;;;;;;3.15;73.46;96238.09;5051401;28;20196;-64
2020/12/19 05:14:38;;;;;;;52.55;28.10;;;;;;;3.10;73.64;96244.59;5051281;28;20196;-66
2020/12/19 05:17:05;;;;;;;55.22;27.02;;;;;;;3.14;73.22;96252.03;5050145;28;20197;-64
2020/12/19 05:19:32;;;;;;;49.00;24.92;;;;;;;3.05;73.66;96254.69;5043583;28;20223;-63
2020/12/19 05:22:00;;;;;;;52.33;25.80;;;;;;;3.15;73.21;96243.28;5051045;28;20595;-65
2020/12/19 05:24:31;;;;;;;53.05;26.42;;;;;;;3.21;73.19;96247.75;5050534;28;20697;-65
2020/12/19 05:26:58;;;;;;;51.85;26.00;;;;;;;2.98;73.46;96248.59;5051309;28;20296;-65
2020/12/19 05:29:25;;;;;;;50.60;24.63;;;;;;;2.99;73.84;96260.56;5047884;28;20199;-65
2020/12/19 05:32:00;;;;;;;50.67;25.25;;;;;;;3.05;73.49;96244.31;5050506;28;20678;-63
2020/12/19 05:34:28;;;;;;;47.78;24.63;;;;;;;2.98;74.26;96246.00;5047009;28;20606;-66
2020/12/19 05:36:55;;;;;;;46.53;23.58;;;;;;;3.07;73.48;96252.72;5050895;28;20214;-64
2020/12/19 05:39:22;;;;;;;46.20;24.10;;;;;;;3.00;73.44;96235.47;5044501;28;20227;-66
2020/12/19 05:41:49;;;;;;;48.25;24.35;;;;;;;3.13;73.81;96251.22;5049499;28;20244;-68
2020/12/19 05:44:20;;;;;;;48.08;23.90;;;;;;;3.14;73.64;96257.22;5049688;28;20284;-67
2020/12/19 05:46:47;;;;;;;46.83;23.58;;;;;;;3.13;73.68;96245.22;5048324;28;20189;-65
2020/12/19 05:49:16;;;;;;;49.05;24.77;;;;;;;3.24;73.40;96253.38;5049720;28;20195;-69
2020/12/19 05:51:44;;;;;;;53.28;24.90;;;;;;;3.32;73.46;96260.28;5049096;28;20204;-64
2020/12/19 05:54:13;;;;;;;50.17;24.65;;;;;;;3.30;73.54;96257.03;5049681;28;20195;-69
2020/12/19 05:56:40;;;;;;;49.92;24.20;;;;;;;3.30;73.11;96257.03;5050305;28;20200;-63
2020/12/19 05:59:14;;;;;;;52.67;25.45;;;;;;;3.29;73.68;96271.78;5051116;28;20204;-62
2020/12/19 06:01:47;;;;;;;57.15;25.83;;;;;;;3.26;73.51;96255.78;5050845;28;20688;-67
2020/12/19 06:04:16;;;;;;;61.42;25.92;;;;;;;3.18;73.46;96268.81;5051001;28;20197;-67
2020/12/19 06:06:46;;;;;;;56.03;27.55;;;;;;;3.17;73.53;96269.81;5052718;28;20185;-69
2020/12/19 06:09:14;;;;;;;56.25;26.67;;;;;;;3.06;74.04;96271.84;5061155;28;20192;-62
2020/12/19 06:11:52;;;;;;;59.47;27.23;;;;;;;3.08;73.95;96274.25;5056933;28;20192;-69
2020/12/19 06:14:25;;;;;;;59.08;27.48;;;;;;;3.11;74.11;96273.91;5051751;28;20204;-65
2020/12/19 06:16:59;;;;;;;60.47;26.77;;;;;;;3.06;74.18;96271.84;5050263;28;20647;-65
2020/12/19 06:19:30;;;;;;;57.97;27.77;;;;;;;3.13;73.84;96277.13;5044449;28;20300;-69
2020/12/19 06:21:56;;;;;;;60.22;28.23;;;;;;;3.03;74.25;96267.00;5050509;28;20224;-66
2020/12/19 06:24:49;;;;;;;61.63;27.38;;;;;;;3.05;73.96;96275.41;5049851;28;20688;-65
2020/12/19 06:27:40;;;;;;;63.40;27.75;;;;;;;2.78;74.90;96263.00;5047271;28;20207;-67
2020/12/19 06:30:07;;;;;;;63.35;26.88;;;;;;;2.93;74.95;96287.16;5044664;28;20201;-68
2020/12/19 06:32:34;;;;;;;63.85;27.42;;;;;;;2.97;74.61;96282.44;5050808;28;20185;-69
2020/12/19 06:35:07;;;;;;;61.47;26.33;;;;;;;2.91;74.73;96288.31;5050739;28;20206;-63
2020/12/19 06:37:35;;;;;;;58.35;27.02;;;;;;;2.95;74.49;96290.38;5050367;28;20213;-66
2020/12/19 06:40:11;;;;;;;63.83;28.65;;;;;;;3.01;74.77;96287.06;5049660;28;20215;-68
2020/12/19 06:42:38;;;;;;;63.40;28.98;;;;;;;2.97;75.15;96293.59;5050540;28;20184;-64
2020/12/19 06:45:25;;;;;;;60.20;27.88;;;;;;;3.07;74.77;96299.34;5049536;28;20291;-68
2020/12/19 06:47:52;;;;;;;58.63;26.77;;;;;;;3.12;74.70;96290.25;5048162;28;20215;-66
2020/12/19 06:50:19;;;;;;;57.55;28.48;;;;;;;3.15;74.44;96287.28;5049710;28;20185;-65
2020/12/19 06:52:59;;;;;;;53.35;25.85;;;;;;;3.18;74.68;96282.56;5047100;28;20706;-66
2020/12/19 06:55:28;;;;;;;60.70;28.23;;;;;;;3.23;73.89;96295.78;5044139;28;20196;-68
2020/12/19 06:57:57;;;;;;;54.55;26.88;;;;;;;3.26;73.89;96286.88;5049719;28;20189;-69
2020/12/19 07:00:32;;;;;;;54.05;26.00;;;;;;;3.32;73.83;96297.31;5048611;28;20247;-68
2020/12/19 07:03:00;;;;;;;51.28;25.65;;;;;;;3.38;73.50;96295.81;5049562;28;20207;-66
2020/12/19 07:05:34;;;;;;;51.60;25.10;;;;;;;3.48;73.41;96291.19;5049110;28;20192;-65
2020/12/19 07:08:20;;;;;;;52.58;26.15;;;;;;;3.50;73.22;96284.06;5050116;28;20278;-64
2020/12/19 07:10:47;;;;;;;49.80;24.80;;;;;;;3.45;73.46;96297.53;5048733;28;20193;-70
2020/12/19 07:13:14;;;;;;;53.20;25.85;;;;;;;3.36;73.66;96298.59;5049586;28;20242;-70
2020/12/19 07:15:48;;;;;;;57.92;25.65;;;;;;;3.40;73.75;96293.84;5048885;28;20192;-66
2020/12/19 07:18:29;;;;;;;49.95;24.65;;;;;;;3.37;73.57;96302.00;5047300;28;20181;-64
2020/12/19 07:21:00;;;;;;;49.08;23.35;;;;;;;3.37;74.02;96294.22;5047995;28;20232;-67
2020/12/19 07:23:28;;;;;;;48.25;24.55;;;;;;;3.45;73.64;96302.72;5045724;28;20193;-71
2020/12/19 07:25:54;;;;;;;48.92;24.70;;;;;;;3.33;73.23;96288.59;5048779;28;20189;-70
2020/12/19 07:28:21;;;;;;;44.00;22.55;;;;;;;3.50;73.19;96299.59;5048441;28;20201;-65
2020/12/19 07:30:48;;;;;;;47.80;24.77;;;;;;;3.35;73.14;96296.19;5045908;28;20197;-68
2020/12/19 07:33:14;;;;;;;48.45;24.55;;;;;;;3.38;72.80;96306.19;5048510;28;20244;-68
2020/12/19 07:35:40;;;;;;;48.22;25.30;;;;;;;3.26;72.91;96307.59;5047938;28;20284;-64
2020/12/19 07:38:07;;;;;;;48.78;25.60;;;;;;;3.29;72.74;96296.88;5048537;28;20286;-67
2020/12/19 07:40:34;;;;;;;56.47;26.52;;;;;;;3.32;73.73;96291.34;5048412;28;20220;-63
2020/12/19 07:43:09;;;;;;;53.55;25.88;;;;;;;3.28;74.13;96303.84;5049808;28;20713;-65
2020/12/19 07:45:36;;;;;;;53.60;27.02;;;;;;;3.40;73.48;96293.84;5055259;28;20662;-67
2020/12/19 07:48:04;;;;;;;53.28;26.95;;;;;;;3.46;73.36;96300.94;5048849;28;20232;-62
2020/12/19 07:50:33;;;;;;;54.50;27.52;;;;;;;3.57;75.24;96303.09;5048357;28;20230;-66
2020/12/19 07:53:03;;;;;;;58.13;29.25;;;;;;;3.55;74.88;96302.47;5048321;28;20193;-63
2020/12/19 07:55:30;;;;;;;56.10;28.77;;;;;;;3.48;74.38;96306.75;5045624;28;20296;-67
2020/12/19 07:57:57;;;;;;;56.83;29.65;;;;;;;3.61;74.09;96302.53;5048102;28;20199;-69
2020/12/19 08:00:23;;;;;;;53.70;27.80;;;;;;;3.51;74.26;96303.78;5047949;28;20235;-67
2020/12/19 08:02:51;;;;;;;57.22;28.85;;;;;;;3.53;74.32;96299.22;5048226;28;20229;-65
2020/12/19 08:05:18;;;;;;;57.42;28.35;;;;;;;3.66;74.00;96302.00;5048559;28;20192;-65
2020/12/19 08:07:49;;;;;;;61.75;29.58;;;;;;;3.66;73.79;96296.84;5049308;28;20238;-66
2020/12/19 08:10:16;;;;;;;55.17;28.75;;;;;;;3.87;73.18;96304.69;5047386;28;20250;-65
2020/12/19 08:12:42;;;;;;;61.83;30.65;;;;;;;4.01;73.35;96306.50;5047531;28;20194;-62
2020/12/19 08:15:20;;;;;;;58.88;29.67;;;;;;;4.01;73.00;96299.50;5047270;28;20200;-69
2020/12/19 08:17:55;;;;;;;64.38;31.17;;;;;;;3.95;72.78;96295.03;5045142;28;20188;-61
2020/12/19 08:20:34;;;;;;;77.70;35.72;;;;;;;4.02;73.05;96308.09;5047557;28;20226;-62
2020/12/19 08:23:03;;;;;;;75.97;36.05;;;;;;;3.95;74.67;96299.41;5048001;28;20247;-64
2020/12/19 08:25:30;;;;;;;67.53;34.28;;;;;;;4.01;74.35;96311.69;5045157;28;20571;-65
2020/12/19 08:27:57;;;;;;;66.32;32.55;;;;;;;4.07;73.46;96309.16;5047025;28;20701;-71
2020/12/19 08:30:29;;;;;;;65.25;32.42;;;;;;;4.18;72.90;96310.47;5047290;28;20180;-66
2020/12/19 08:33:02;;;;;;;82.13;38.45;;;;;;;4.24;72.43;96308.94;5047691;28;20281;-66
2020/12/19 08:35:32;;;;;;;92.90;44.30;;;;;;;4.23;72.53;96318.53;5046338;28;20279;-70
2020/12/19 08:38:03;;;;;;;103.97;46.90;;;;;;;4.28;72.15;96305.81;5051511;28;20279;-71
2020/12/19 08:40:34;;;;;;;92.70;42.85;;;;;;;4.20;72.24;96305.91;5048463;28;20295;-66
2020/12/19 08:43:01;;;;;;;104.97;46.63;;;;;;;4.24;72.75;96304.56;5052027;28;20548;-69
2020/12/19 08:45:36;;;;;;;103.30;47.45;;;;;;;4.24;72.23;96307.16;5049224;28;20197;-64
2020/12/19 08:48:08;;;;;;;116.63;49.13;;;;;;;4.15;72.81;96297.88;5052250;28;20196;-64
2020/12/19 08:50:41;;;;;;;108.38;48.70;;;;;;;4.26;72.41;96302.59;5052037;28;20204;-65
2020/12/19 08:53:12;;;;;;;103.75;45.63;;;;;;;4.16;72.46;96294.28;5052378;28;20586;-68
2020/12/19 08:55:39;;;;;;;107.28;45.40;;;;;;;4.08;72.63;96299.59;5052657;28;20200;-67
2020/12/19 08:58:06;;;;;;;110.93;48.28;;;;;;;4.03;72.73;96301.94;5052875;28;20238;-64
2020/12/19 09:00:36;;;;;;;260.17;109.75;;;;;;;4.00;73.18;96291.91;5052068;28;20223;-68
2020/12/19 09:03:09;;;;;;;119.97;51.47;;;;;;;3.93;73.33;96286.63;5052777;28;20250;-61
2020/12/19 09:05:44;;;;;;;110.28;47.92;;;;;;;4.07;73.25;96285.00;5045575;28;20232;-67
2020/12/19 09:08:13;;;;;;;115.00;48.67;;;;;;;4.03;73.12;96281.97;5053215;28;20207;-65
2020/12/19 09:10:41;;;;;;;114.00;48.03;;;;;;;4.06;73.00;96286.00;5052688;28;20211;-69
2020/12/19 09:13:13;;;;;;;113.70;48.95;;;;;;;4.13;72.85;96277.31;5053480;28;20214;-65
2020/12/19 09:15:42;;;;;;;108.45;48.95;;;;;;;4.13;73.18;96277.31;5053534;28;20598;-64
2020/12/19 09:18:16;;;;;;;110.63;48.75;;;;;;;4.25;72.86;96274.25;5054207;28;20296;-67
2020/12/19 09:20:45;;;;;;;116.72;47.92;;;;;;;4.25;72.40;96269.88;5055268;28;20228;-66
2020/12/19 09:23:12;;;;;;;125.13;50.83;;;;;;;4.15;72.84;96274.53;5052200;28;20964;-62
2020/12/19 09:25:38;;;;;;;119.75;51.83;;;;;;;4.19;72.73;96270.59;5044869;28;21014;-67
2020/12/19 09:28:06;;;;;;;122.07;50.78;;;;;;;4.16;72.46;96265.75;5051452;28;20216;-68
2020/12/19 09:30:33;;;;;;;190.85;92.93;;;;;;;4.08;73.11;96271.06;5051615;28;20291;-64
2020/12/19 09:33:00;;;;;;;241.43;125.80;;;;;;;4.13;73.68;96260.94;5051539;28;20232;-68
2020/12/19 09:35:27;;;;;;;129.32;51.58;;;;;;;4.28;72.98;96269.50;5050780;28;20268;-68
2020/12/19 09:37:54;;;;;;;121.25;51.92;;;;;;;4.28;72.65;96259.13;5050865;28;20258;-65
2020/12/19 09:40:28;;;;;;;123.38;50.38;;;;;;;4.22;72.68;96259.84;5051028;28;20208;-66
2020/12/19 09:42:54;;;;;;;130.32;52.13;;;;;;;4.12;72.76;96249.75;5051215;28;20185;-68
2020/12/19 09:45:21;;;;;;;126.13;53.00;;;;;;;4.12;73.07;96254.16;5051534;28;20201;-64
2020/12/19 09:47:59;;;;;;;136.10;56.20;;;;;;;4.13;73.36;96253.16;5049229;28;20214;-68
2020/12/19 09:50:27;;;;;;;134.00;54.78;;;;;;;4.35;72.41;96249.59;5048360;28;20200;-68
2020/12/19 09:52:54;;;;;;;127.78;53.83;;;;;;;4.33;72.35;96251.59;5050638;28;20199;-63
2020/12/19 09:55:21;;;;;;;250.70;129.73;;;;;;;4.39;72.73;96256.03;5050676;28;20188;-69
2020/12/19 09:57:47;;;;;;;243.85;119.93;;;;;;;4.35;73.13;96254.00;5051229;28;20766;-65
2020/12/19 10:00:14;;;;;;;142.90;58.25;;;;;;;4.37;72.80;96242.44;5052669;28;20223;-62
2020/12/19 10:02:42;;;;;;;130.77;54.60;;;;;;;4.34;72.39;96236.81;5052360;28;20246;-64
2020/12/19 10:05:09;;;;;;;133.45;54.65;;;;;;;4.12;72.41;96229.00;5050583;28;20766;-65
2020/12/19 10:07:36;;;;;;;157.48;78.13;;;;;;;4.36;73.06;96245.22;5051630;28;20212;-64
2020/12/19 10:10:05;;;;;;;215.18;110.93;;;;;;;4.35;73.18;96236.63;5050336;28;20631;-68
2020/12/19 10:12:33;;;;;;;126.28;52.47;;;;;;;4.39;72.58;96235.28;5049027;28;20205;-66
2020/12/19 10:14:59;;;;;;;130.43;53.15;;;;;;;4.17;73.14;96238.03;5050597;28;20188;-63
2020/12/19 10:17:26;;;;;;;129.65;52.08;;;;;;;4.32;72.28;96229.22;5051094;28;20200;-67
2020/12/19 10:19:53;;;;;;;123.13;50.72;;;;;;;4.30;72.22;96231.19;5050359;28;20277;-67
2020/12/19 10:22:19;;;;;;;120.85;51.60;;;;;;;4.31;71.93;96225.00;5050673;28;20315;-64
2020/12/19 10:24:46;;;;;;;138.35;64.53;;;;;;;4.30;72.40;96220.81;5050292;28;20629;-66
2020/12/19 10:27:13;;;;;;;141.88;63.05;;;;;;;4.34;72.53;96222.06;5050867;28;20685;-64
2020/12/19 10:29:40;;;;;;;119.55;52.47;;;;;;;4.45;71.96;96218.16;5050467;28;20208;-65
2020/12/19 10:32:12;;;;;;;117.95;50.35;;;;;;;4.33;72.05;96181.53;5050274;28;20220;-67
2020/12/19 10:34:40;;;;;;;121.88;50.70;;;;;;;4.60;71.84;96211.91;5049363;28;20239;-65
2020/12/19 10:37:07;;;;;;;113.60;48.72;;;;;;;4.67;71.61;96207.59;5050430;28;20298;-63
2020/12/19 10:39:33;;;;;;;120.90;50.45;;;;;;;4.60;71.93;96206.72;5049859;28;20820;-66
2020/12/19 10:42:00;;;;;;;110.75;47.53;;;;;;;4.69;71.64;96203.00;5050085;28;20774;-67
2020/12/19 10:44:26;;;;;;;112.18;46.97;;;;;;;4.73;71.62;96204.25;5049946;28;20196;-66
2020/12/19 10:46:53;;;;;;;108.35;48.50;;;;;;;4.72;71.52;96205.25;5050536;28;20286;-66
2020/12/19 10:49:19;;;;;;;112.90;47.13;;;;;;;4.79;71.25;96200.91;5049238;28;20295;-68
2020/12/19 10:51:47;;;;;;;119.43;49.63;;;;;;;4.67;70.91;96202.38;5050727;28;20215;-63
2020/12/19 10:54:14;;;;;;;115.38;48.65;;;;;;;4.65;70.84;96204.38;5052370;28;20703;-62
2020/12/19 10:56:54;;;;;;;124.00;50.20;;;;;;;4.73;70.91;96203.44;5050622;28;20210;-66
2020/12/19 10:59:21;;;;;;;115.28;48.08;;;;;;;4.72;70.83;96202.66;5048968;28;20699;-61
2020/12/19 11:01:48;;;;;;;111.15;49.13;;;;;;;4.60;70.78;96196.34;5049700;28;20227;-63
2020/12/19 11:04:14;;;;;;;112.05;48.78;;;;;;;4.48;71.28;96187.47;5049037;28;20606;-63
2020/12/19 11:06:41;;;;;;;119.47;48.97;;;;;;;4.56;71.44;96182.13;5049060;28;20216;-59
2020/12/19 11:09:08;;;;;;;123.03;53.30;;;;;;;4.63;71.34;96185.59;5049304;28;20204;-63
2020/12/19 11:11:34;;;;;;;113.35;50.65;;;;;;;4.61;71.84;96179.78;5050055;28;20594;-66
2020/12/19 11:14:00;;;;;;;121.18;51.17;;;;;;;4.67;71.28;96171.22;5049525;28;20196;-63
2020/12/19 11:16:29;;;;;;;119.70;49.92;;;;;;;4.60;71.52;96165.19;5050067;28;20196;-63
2020/12/19 11:18:57;;;;;;;118.88;50.15;;;;;;;4.72;72.04;96168.91;5049152;28;20203;-63
2020/12/19 11:21:24;;;;;;;168.48;79.35;;;;;;;4.59;71.40;96168.78;5049726;28;20298;-64
2020/12/19 11:23:51;;;;;;;449.42;297.60;;;;;;;4.68;71.05;96138.28;5049127;28;20227;-65
2020/12/19 11:26:21;;;;;;;136.55;59.35;;;;;;;4.97;70.78;96167.47;5049679;28;20871;-62